ANZ996 NZCH-YSSY
Flight info
| Callsign | ANZ996 |
|---|---|
| Flight time | N/A |
| Altitude | 34000 |
| Route | GUTB2P GUTBU VANDA IDBAD SULON BOKED PLUGA BOREE BORE4A |
| Aircraft | A20N/M-SDE2E3FGHIJ1RWXY/LB1 |
Departure
| Time | N/A |
|---|---|
| Airport | Christchurch International Airport (NZCH) |
Arrival
| Time | 2026-04-23 11:31 |
|---|---|
| Airport | Sydney Kingsford Smith International Airport (YSSY) |
| Time | Latitude | Longitude | Altitude | Speed | Heading |
|---|---|---|---|---|---|
| 2026-04-23 08:57 | -42.81687 | 171.38370 | 33000 ft | 463 kts | 284° |
| 2026-04-23 08:57 | -42.80906 | 171.34133 | 33506 ft | 457 kts | 284° |
| 2026-04-23 08:58 | -42.80140 | 171.29985 | 33788 ft | 449 kts | 284° |
| 2026-04-23 08:58 | -42.79377 | 171.25862 | 33911 ft | 449 kts | 284° |
| 2026-04-23 08:58 | -42.77833 | 171.17546 | 33979 ft | 454 kts | 284° |
| 2026-04-23 08:59 | -42.76290 | 171.09261 | 33991 ft | 450 kts | 284° |
| 2026-04-23 08:59 | -42.74745 | 171.01003 | 33994 ft | 450 kts | 284° |
| 2026-04-23 09:00 | -42.73205 | 170.92798 | 33998 ft | 450 kts | 284° |
| 2026-04-23 09:00 | -42.71651 | 170.84559 | 33998 ft | 450 kts | 284° |
| 2026-04-23 09:01 | -42.70093 | 170.76326 | 33999 ft | 450 kts | 284° |
| 2026-04-23 09:01 | -42.68527 | 170.68087 | 33999 ft | 450 kts | 284° |
| 2026-04-23 09:02 | -42.66951 | 170.59847 | 33996 ft | 452 kts | 283° |
| 2026-04-23 09:02 | -42.66131 | 170.55681 | 34214 ft | 461 kts | 283° |
| 2026-04-23 09:02 | -42.65314 | 170.51411 | 34281 ft | 473 kts | 283° |
| 2026-04-23 09:03 | -42.64479 | 170.47033 | 34322 ft | 486 kts | 283° |
| 2026-04-23 09:03 | -42.63621 | 170.42549 | 34333 ft | 493 kts | 283° |
| 2026-04-23 09:03 | -42.61893 | 170.33570 | 34341 ft | 487 kts | 283° |
| 2026-04-23 09:04 | -42.60174 | 170.24704 | 34344 ft | 486 kts | 283° |
| 2026-04-23 09:04 | -42.58443 | 170.15820 | 34345 ft | 488 kts | 283° |
| 2026-04-23 09:05 | -42.56703 | 170.06942 | 34344 ft | 486 kts | 283° |
| 2026-04-23 09:05 | -42.54970 | 169.98137 | 34345 ft | 486 kts | 283° |
| 2026-04-23 09:06 | -42.53216 | 169.89272 | 34345 ft | 487 kts | 284° |
| 2026-04-23 09:06 | -42.51454 | 169.80410 | 34345 ft | 486 kts | 284° |
| 2026-04-23 09:07 | -42.49687 | 169.71567 | 34347 ft | 486 kts | 283° |
| 2026-04-23 09:07 | -42.47922 | 169.62826 | 34346 ft | 477 kts | 283° |
| 2026-04-23 09:08 | -42.46171 | 169.54130 | 34348 ft | 480 kts | 283° |
| 2026-04-23 09:08 | -42.44407 | 169.45394 | 34345 ft | 481 kts | 283° |
| 2026-04-23 09:09 | -42.42501 | 169.36733 | 34349 ft | 480 kts | 290° |
| 2026-04-23 09:09 | -42.39821 | 169.28429 | 34347 ft | 483 kts | 294° |
| 2026-04-23 09:10 | -42.35475 | 169.16144 | 34345 ft | 482 kts | 295° |
| 2026-04-23 09:11 | -42.32533 | 169.08008 | 34347 ft | 482 kts | 295° |
| 2026-04-23 09:11 | -42.29571 | 168.99871 | 34346 ft | 483 kts | 295° |
| 2026-04-23 09:12 | -42.26599 | 168.91741 | 34345 ft | 482 kts | 295° |
| 2026-04-23 09:12 | -42.23626 | 168.83649 | 34345 ft | 480 kts | 295° |
| 2026-04-23 09:13 | -42.20680 | 168.75652 | 34347 ft | 479 kts | 295° |
| 2026-04-23 09:13 | -42.17704 | 168.67590 | 34347 ft | 481 kts | 295° |
| 2026-04-23 09:14 | -42.14720 | 168.59533 | 34346 ft | 480 kts | 295° |
| 2026-04-23 09:14 | -42.11734 | 168.51496 | 34347 ft | 480 kts | 295° |
| 2026-04-23 09:15 | -42.08739 | 168.43456 | 34347 ft | 481 kts | 295° |
| 2026-04-23 09:15 | -42.05736 | 168.35420 | 34346 ft | 480 kts | 296° |
| 2026-04-23 09:16 | -42.02731 | 168.27402 | 34347 ft | 479 kts | 296° |
| 2026-04-23 09:16 | -41.99720 | 168.19391 | 34347 ft | 480 kts | 296° |
| 2026-04-23 09:17 | -41.96721 | 168.11434 | 34346 ft | 480 kts | 296° |
| 2026-04-23 09:17 | -41.93690 | 168.03413 | 34348 ft | 487 kts | 296° |
| 2026-04-23 09:18 | -41.90602 | 167.95266 | 34346 ft | 489 kts | 296° |
| 2026-04-23 09:18 | -41.87524 | 167.87168 | 34347 ft | 486 kts | 296° |
| 2026-04-23 09:19 | -41.84441 | 167.79083 | 34347 ft | 488 kts | 296° |
| 2026-04-23 09:19 | -41.81345 | 167.70984 | 34345 ft | 487 kts | 296° |
| 2026-04-23 09:20 | -41.78251 | 167.62913 | 34345 ft | 486 kts | 296° |
| 2026-04-23 09:20 | -41.75149 | 167.54844 | 34346 ft | 487 kts | 296° |
| 2026-04-23 09:21 | -41.72037 | 167.46771 | 34347 ft | 488 kts | 296° |
| 2026-04-23 09:21 | -41.68923 | 167.38716 | 34346 ft | 487 kts | 296° |
| 2026-04-23 09:22 | -41.65807 | 167.30678 | 34347 ft | 487 kts | 296° |
| 2026-04-23 09:22 | -41.62692 | 167.22658 | 34345 ft | 482 kts | 296° |
| 2026-04-23 09:23 | -41.59605 | 167.14738 | 34346 ft | 481 kts | 296° |
| 2026-04-23 09:23 | -41.56498 | 167.06790 | 34347 ft | 483 kts | 296° |
| 2026-04-23 09:24 | -41.53405 | 166.98898 | 34451 ft | 484 kts | 297° |
| 2026-04-23 09:24 | -41.51841 | 166.94914 | 34868 ft | 484 kts | 297° |
| 2026-04-23 09:24 | -41.50283 | 166.90950 | 35425 ft | 482 kts | 297° |
| 2026-04-23 09:24 | -41.48727 | 166.86997 | 35897 ft | 478 kts | 297° |
| 2026-04-23 09:25 | -41.47190 | 166.83097 | 36151 ft | 474 kts | 297° |
| 2026-04-23 09:25 | -41.45649 | 166.79193 | 36261 ft | 478 kts | 297° |
| 2026-04-23 09:25 | -41.44091 | 166.75251 | 36310 ft | 482 kts | 297° |
| 2026-04-23 09:26 | -41.40960 | 166.67351 | 36334 ft | 480 kts | 297° |
| 2026-04-23 09:26 | -41.37843 | 166.59510 | 36342 ft | 478 kts | 297° |
| 2026-04-23 09:27 | -41.34721 | 166.51676 | 36344 ft | 480 kts | 297° |
| 2026-04-23 09:27 | -41.31596 | 166.43846 | 36343 ft | 476 kts | 297° |
| 2026-04-23 09:28 | -41.28493 | 166.36096 | 36345 ft | 475 kts | 297° |
| 2026-04-23 09:28 | -41.25372 | 166.28323 | 36345 ft | 478 kts | 297° |
| 2026-04-23 09:29 | -41.22243 | 166.20551 | 36344 ft | 476 kts | 297° |
| 2026-04-23 09:29 | -41.19116 | 166.12806 | 36345 ft | 476 kts | 297° |
| 2026-04-23 09:30 | -41.15979 | 166.05057 | 36346 ft | 477 kts | 298° |
| 2026-04-23 09:30 | -41.12834 | 165.97307 | 36345 ft | 477 kts | 298° |
| 2026-04-23 09:31 | -41.09708 | 165.89625 | 36345 ft | 476 kts | 298° |
| 2026-04-23 09:31 | -41.06556 | 165.81898 | 36346 ft | 477 kts | 298° |
| 2026-04-23 09:32 | -41.03393 | 165.74164 | 36345 ft | 477 kts | 298° |
| 2026-04-23 09:32 | -41.00240 | 165.66464 | 36345 ft | 473 kts | 298° |
| 2026-04-23 09:33 | -40.97104 | 165.58831 | 36347 ft | 473 kts | 298° |
| 2026-04-23 09:33 | -40.93949 | 165.51178 | 36347 ft | 475 kts | 298° |
| 2026-04-23 09:34 | -40.90785 | 165.43524 | 36345 ft | 473 kts | 298° |
| 2026-04-23 09:34 | -40.87626 | 165.35900 | 36347 ft | 473 kts | 298° |
| 2026-04-23 09:35 | -40.84458 | 165.28275 | 36347 ft | 474 kts | 298° |
| 2026-04-23 09:35 | -40.81280 | 165.20643 | 36346 ft | 474 kts | 298° |
| 2026-04-23 09:36 | -40.78104 | 165.13036 | 36347 ft | 473 kts | 298° |
| 2026-04-23 09:36 | -40.74920 | 165.05429 | 36347 ft | 474 kts | 298° |
| 2026-04-23 09:37 | -40.71727 | 164.97819 | 36346 ft | 474 kts | 298° |
| 2026-04-23 09:37 | -40.69075 | 164.91492 | 36363 ft | 477 kts | 299° |
| 2026-04-23 09:38 | -40.65844 | 164.83807 | 36371 ft | 480 kts | 300° |
| 2026-04-23 09:38 | -40.62080 | 164.74903 | 36373 ft | 477 kts | 300° |
| 2026-04-23 09:39 | -40.59369 | 164.68510 | 36374 ft | 478 kts | 300° |
| 2026-04-23 09:39 | -40.56118 | 164.60864 | 36373 ft | 479 kts | 300° |
| 2026-04-23 09:40 | -40.52866 | 164.53231 | 36373 ft | 478 kts | 300° |
| 2026-04-23 09:40 | -40.49614 | 164.45616 | 36374 ft | 478 kts | 300° |
| 2026-04-23 09:41 | -40.46353 | 164.37998 | 36374 ft | 479 kts | 300° |
| 2026-04-23 09:41 | -40.43104 | 164.30427 | 36373 ft | 478 kts | 300° |
| 2026-04-23 09:42 | -40.39837 | 164.22832 | 36374 ft | 478 kts | 300° |
| 2026-04-23 09:42 | -40.36564 | 164.15242 | 36374 ft | 479 kts | 300° |
| 2026-04-23 09:43 | -40.33280 | 164.07647 | 36373 ft | 479 kts | 300° |
| 2026-04-23 09:43 | -40.29994 | 164.00064 | 36373 ft | 478 kts | 300° |
| 2026-04-23 09:44 | -40.26707 | 163.92497 | 36374 ft | 478 kts | 300° |
| 2026-04-23 09:44 | -40.23410 | 163.84926 | 36374 ft | 479 kts | 300° |
| 2026-04-23 09:45 | -40.20108 | 163.77365 | 36373 ft | 478 kts | 300° |
| 2026-04-23 09:45 | -40.16806 | 163.69818 | 36373 ft | 478 kts | 300° |
| 2026-04-23 09:46 | -40.13497 | 163.62275 | 36374 ft | 479 kts | 300° |
| 2026-04-23 09:46 | -40.10179 | 163.54732 | 36373 ft | 479 kts | 300° |
| 2026-04-23 09:47 | -40.06860 | 163.47203 | 36373 ft | 478 kts | 301° |
| 2026-04-23 09:47 | -40.03568 | 163.39739 | 36373 ft | 477 kts | 301° |
| 2026-04-23 09:48 | -40.00235 | 163.32208 | 36374 ft | 476 kts | 301° |
| 2026-04-23 09:48 | -39.96938 | 163.24788 | 36374 ft | 477 kts | 301° |
| 2026-04-23 09:49 | -39.93604 | 163.17307 | 36373 ft | 477 kts | 301° |
| 2026-04-23 09:49 | -39.90271 | 163.09844 | 36373 ft | 476 kts | 301° |
| 2026-04-23 09:50 | -39.86936 | 163.02393 | 36374 ft | 476 kts | 301° |
| 2026-04-23 09:50 | -39.83593 | 162.94940 | 36374 ft | 477 kts | 301° |
| 2026-04-23 09:51 | -39.80247 | 162.87494 | 36373 ft | 476 kts | 301° |
| 2026-04-23 09:51 | -39.76900 | 162.80066 | 36374 ft | 476 kts | 301° |
| 2026-04-23 09:52 | -39.73544 | 162.72638 | 36374 ft | 477 kts | 301° |
| 2026-04-23 09:52 | -39.70171 | 162.65194 | 36374 ft | 482 kts | 301° |
| 2026-04-23 09:53 | -39.66747 | 162.57654 | 36373 ft | 485 kts | 301° |
| 2026-04-23 09:53 | -39.63330 | 162.50143 | 36373 ft | 482 kts | 302° |
| 2026-04-23 09:54 | -39.59918 | 162.42662 | 36374 ft | 483 kts | 302° |
| 2026-04-23 09:54 | -39.56511 | 162.35210 | 36373 ft | 483 kts | 302° |
| 2026-04-23 09:55 | -39.53081 | 162.27726 | 36373 ft | 482 kts | 302° |
| 2026-04-23 09:55 | -39.49654 | 162.20266 | 36374 ft | 482 kts | 302° |
| 2026-04-23 09:56 | -39.46213 | 162.12795 | 36374 ft | 483 kts | 302° |
| 2026-04-23 09:56 | -39.42769 | 162.05334 | 36373 ft | 483 kts | 302° |
| 2026-04-23 09:57 | -39.39325 | 161.97892 | 36374 ft | 482 kts | 302° |
| 2026-04-23 09:57 | -39.35880 | 161.90472 | 36373 ft | 479 kts | 302° |
| 2026-04-23 09:58 | -39.32466 | 161.83131 | 36374 ft | 476 kts | 302° |
| 2026-04-23 09:58 | -39.29038 | 161.75775 | 36374 ft | 479 kts | 302° |
| 2026-04-23 09:59 | -39.25599 | 161.68413 | 36373 ft | 478 kts | 302° |
| 2026-04-23 09:59 | -39.22188 | 161.61124 | 36374 ft | 477 kts | 302° |
| 2026-04-23 10:00 | -39.18749 | 161.53795 | 36374 ft | 478 kts | 302° |
| 2026-04-23 10:00 | -39.15297 | 161.46457 | 36373 ft | 478 kts | 302° |
| 2026-04-23 10:01 | -39.11849 | 161.39142 | 36373 ft | 477 kts | 302° |
| 2026-04-23 10:01 | -39.08398 | 161.31838 | 36374 ft | 478 kts | 302° |
| 2026-04-23 10:02 | -39.04934 | 161.24524 | 36374 ft | 478 kts | 302° |
| 2026-04-23 10:02 | -39.01466 | 161.17218 | 36302 ft | 479 kts | 302° |
| 2026-04-23 10:03 | -38.98001 | 161.09935 | 36272 ft | 477 kts | 302° |
| 2026-04-23 10:03 | -38.94536 | 161.02668 | 36267 ft | 478 kts | 302° |
| 2026-04-23 10:04 | -38.91053 | 160.95381 | 36265 ft | 479 kts | 302° |
| 2026-04-23 10:04 | -38.87570 | 160.88109 | 36265 ft | 477 kts | 302° |
| 2026-04-23 10:05 | -38.84086 | 160.80853 | 36266 ft | 478 kts | 302° |
| 2026-04-23 10:05 | -38.80592 | 160.73593 | 36266 ft | 478 kts | 302° |
| 2026-04-23 10:06 | -38.77119 | 160.66392 | 36265 ft | 478 kts | 303° |
| 2026-04-23 10:06 | -38.73623 | 160.59159 | 36265 ft | 477 kts | 303° |
| 2026-04-23 10:07 | -38.70121 | 160.51932 | 36266 ft | 478 kts | 303° |
| 2026-04-23 10:07 | -38.66608 | 160.44699 | 36265 ft | 478 kts | 303° |
| 2026-04-23 10:08 | -38.63092 | 160.37477 | 36265 ft | 477 kts | 303° |
| 2026-04-23 10:08 | -38.59578 | 160.30272 | 36266 ft | 478 kts | 303° |
| 2026-04-23 10:09 | -38.54288 | 160.19457 | 36265 ft | 478 kts | 303° |
| 2026-04-23 10:09 | -38.50761 | 160.12265 | 36265 ft | 477 kts | 303° |
| 2026-04-23 10:10 | -38.47230 | 160.05082 | 36266 ft | 478 kts | 303° |
| 2026-04-23 10:10 | -38.43690 | 159.97897 | 36266 ft | 478 kts | 303° |
| 2026-04-23 10:11 | -38.40147 | 159.90720 | 36265 ft | 478 kts | 303° |
| 2026-04-23 10:11 | -38.36604 | 159.83560 | 36265 ft | 477 kts | 303° |
| 2026-04-23 10:12 | -38.33053 | 159.76402 | 36267 ft | 478 kts | 303° |
| 2026-04-23 10:12 | -38.29515 | 159.69290 | 36265 ft | 474 kts | 303° |
| 2026-04-23 10:13 | -38.25985 | 159.62204 | 36266 ft | 475 kts | 303° |
| 2026-04-23 10:13 | -38.22438 | 159.55097 | 36265 ft | 476 kts | 303° |
| 2026-04-23 10:14 | -38.18891 | 159.48007 | 36264 ft | 474 kts | 303° |
| 2026-04-23 10:14 | -38.15345 | 159.40933 | 36266 ft | 475 kts | 303° |
| 2026-04-23 10:15 | -38.11809 | 159.33895 | 36265 ft | 476 kts | 303° |
| 2026-04-23 10:15 | -38.08246 | 159.26820 | 36265 ft | 475 kts | 303° |
| 2026-04-23 10:16 | -38.04687 | 159.19768 | 36266 ft | 474 kts | 303° |
| 2026-04-23 10:16 | -38.01118 | 159.12711 | 36266 ft | 475 kts | 303° |
| 2026-04-23 10:17 | -37.97544 | 159.05658 | 36265 ft | 475 kts | 303° |
| 2026-04-23 10:17 | -37.93974 | 158.98634 | 36265 ft | 473 kts | 303° |
| 2026-04-23 10:18 | -37.90407 | 158.91625 | 36266 ft | 474 kts | 303° |
| 2026-04-23 10:18 | -37.86825 | 158.84604 | 36265 ft | 475 kts | 303° |
| 2026-04-23 10:19 | -37.83266 | 158.77639 | 36265 ft | 474 kts | 303° |
| 2026-04-23 10:19 | -37.79681 | 158.70641 | 36266 ft | 474 kts | 303° |
| 2026-04-23 10:20 | -37.76088 | 158.63641 | 36265 ft | 475 kts | 303° |
| 2026-04-23 10:20 | -37.72490 | 158.56647 | 36265 ft | 474 kts | 304° |
| 2026-04-23 10:21 | -37.68894 | 158.49672 | 36266 ft | 474 kts | 304° |
| 2026-04-23 10:21 | -37.65293 | 158.42701 | 36266 ft | 475 kts | 304° |
| 2026-04-23 10:22 | -37.61705 | 158.35773 | 36264 ft | 474 kts | 303° |
| 2026-04-23 10:22 | -37.58090 | 158.28814 | 36265 ft | 474 kts | 303° |
| 2026-04-23 10:23 | -37.54478 | 158.21859 | 36266 ft | 475 kts | 303° |
| 2026-04-23 10:23 | -37.50853 | 158.14901 | 36265 ft | 475 kts | 304° |
| 2026-04-23 10:24 | -37.47226 | 158.07956 | 36265 ft | 474 kts | 304° |
| 2026-04-23 10:24 | -37.43600 | 158.01029 | 36266 ft | 474 kts | 304° |
| 2026-04-23 10:25 | -37.39962 | 157.94094 | 36265 ft | 475 kts | 304° |
| 2026-04-23 10:25 | -37.36933 | 157.88331 | 36265 ft | 474 kts | 304° |
| 2026-04-23 10:26 | -37.33294 | 157.81418 | 36265 ft | 474 kts | 304° |
| 2026-04-23 10:26 | -37.29650 | 157.74510 | 36266 ft | 475 kts | 304° |
| 2026-04-23 10:27 | -37.25996 | 157.67599 | 36265 ft | 475 kts | 304° |
| 2026-04-23 10:27 | -37.22355 | 157.60760 | 36265 ft | 468 kts | 303° |
| 2026-04-23 10:28 | -37.18733 | 157.53942 | 36266 ft | 470 kts | 303° |
| 2026-04-23 10:28 | -37.15099 | 157.47105 | 36265 ft | 471 kts | 303° |
| 2026-04-23 10:29 | -37.11489 | 157.40325 | 36265 ft | 470 kts | 303° |
| 2026-04-23 10:29 | -37.07857 | 157.33520 | 36266 ft | 470 kts | 303° |
| 2026-04-23 10:30 | -37.04210 | 157.26703 | 36265 ft | 471 kts | 303° |
| 2026-04-23 10:30 | -37.00562 | 157.19897 | 36264 ft | 470 kts | 303° |
| 2026-04-23 10:31 | -36.96917 | 157.13111 | 36266 ft | 470 kts | 303° |
| 2026-04-23 10:31 | -36.93259 | 157.06316 | 36266 ft | 471 kts | 303° |
| 2026-04-23 10:32 | -36.89596 | 156.99525 | 36277 ft | 470 kts | 303° |
| 2026-04-23 10:32 | -36.87759 | 156.96134 | 36379 ft | 473 kts | 303° |
| 2026-04-23 10:32 | -36.85902 | 156.92704 | 36422 ft | 478 kts | 303° |
| 2026-04-23 10:33 | -36.82194 | 156.85857 | 36447 ft | 478 kts | 303° |
| 2026-04-23 10:33 | -36.78479 | 156.79011 | 36453 ft | 475 kts | 303° |
| 2026-04-23 10:34 | -36.74765 | 156.72180 | 36454 ft | 477 kts | 303° |
| 2026-04-23 10:34 | -36.71037 | 156.65336 | 36453 ft | 477 kts | 303° |
| 2026-04-23 10:35 | -36.67307 | 156.58504 | 36454 ft | 476 kts | 303° |
| 2026-04-23 10:35 | -36.63578 | 156.51688 | 36455 ft | 476 kts | 303° |
| 2026-04-23 10:36 | -36.59841 | 156.44871 | 36453 ft | 477 kts | 304° |
| 2026-04-23 10:36 | -36.56101 | 156.38062 | 36453 ft | 476 kts | 304° |
| 2026-04-23 10:37 | -36.52363 | 156.31272 | 36455 ft | 476 kts | 303° |
| 2026-04-23 10:37 | -36.48609 | 156.24515 | 36453 ft | 472 kts | 303° |
| 2026-04-23 10:38 | -36.44895 | 156.17804 | 36455 ft | 472 kts | 302° |
| 2026-04-23 10:38 | -36.41196 | 156.11116 | 36454 ft | 474 kts | 303° |
| 2026-04-23 10:39 | -36.37462 | 156.04377 | 36453 ft | 472 kts | 303° |
| 2026-04-23 10:39 | -36.33738 | 155.97671 | 36455 ft | 472 kts | 303° |
| 2026-04-23 10:40 | -36.30003 | 155.90960 | 36455 ft | 473 kts | 303° |
| 2026-04-23 10:40 | -36.26261 | 155.84250 | 36453 ft | 473 kts | 303° |
| 2026-04-23 10:41 | -36.22521 | 155.77559 | 36455 ft | 472 kts | 303° |
| 2026-04-23 10:41 | -36.18778 | 155.70876 | 36456 ft | 473 kts | 303° |
| 2026-04-23 10:42 | -36.15023 | 155.64185 | 36453 ft | 473 kts | 303° |
| 2026-04-23 10:42 | -36.11268 | 155.57543 | 36453 ft | 469 kts | 302° |
| 2026-04-23 10:43 | -36.07537 | 155.50925 | 36455 ft | 470 kts | 302° |
| 2026-04-23 10:43 | -36.03794 | 155.44286 | 36453 ft | 471 kts | 302° |
| 2026-04-23 10:44 | -36.00048 | 155.37658 | 36454 ft | 470 kts | 302° |
| 2026-04-23 10:44 | -35.96306 | 155.31050 | 36454 ft | 470 kts | 302° |
| 2026-04-23 10:45 | -35.92577 | 155.24478 | 36455 ft | 471 kts | 302° |
| 2026-04-23 10:45 | -35.88816 | 155.17865 | 36454 ft | 470 kts | 302° |
| 2026-04-23 10:46 | -35.85061 | 155.11275 | 36455 ft | 470 kts | 302° |
| 2026-04-23 10:46 | -35.81295 | 155.04680 | 36455 ft | 471 kts | 302° |
| 2026-04-23 10:47 | -35.77523 | 154.98086 | 36454 ft | 471 kts | 302° |
| 2026-04-23 10:47 | -35.73739 | 154.91501 | 36455 ft | 472 kts | 302° |
| 2026-04-23 10:48 | -35.69950 | 154.84900 | 36455 ft | 472 kts | 302° |
| 2026-04-23 10:48 | -35.66163 | 154.78310 | 36454 ft | 471 kts | 302° |
| 2026-04-23 10:49 | -35.62371 | 154.71743 | 36454 ft | 471 kts | 303° |
| 2026-04-23 10:49 | -35.58462 | 154.65256 | 36455 ft | 473 kts | 304° |
| 2026-04-23 10:50 | -35.54499 | 154.58812 | 36455 ft | 472 kts | 304° |
| 2026-04-23 10:50 | -35.50526 | 154.52396 | 36455 ft | 472 kts | 304° |
| 2026-04-23 10:51 | -35.46547 | 154.45987 | 36454 ft | 473 kts | 304° |
| 2026-04-23 10:51 | -35.42582 | 154.39613 | 36455 ft | 473 kts | 304° |
| 2026-04-23 10:52 | -35.38593 | 154.33215 | 36454 ft | 472 kts | 304° |
| 2026-04-23 10:52 | -35.34599 | 154.26855 | 36455 ft | 469 kts | 303° |
| 2026-04-23 10:53 | -35.30632 | 154.20518 | 36456 ft | 469 kts | 303° |
| 2026-04-23 10:53 | -35.26655 | 154.14163 | 36455 ft | 471 kts | 303° |
| 2026-04-23 10:54 | -35.22671 | 154.07809 | 36454 ft | 470 kts | 304° |
| 2026-04-23 10:54 | -35.18693 | 154.01478 | 36454 ft | 469 kts | 304° |
| 2026-04-23 10:55 | -35.14707 | 153.95144 | 36455 ft | 471 kts | 304° |
| 2026-04-23 10:55 | -35.10919 | 153.88656 | 36457 ft | 467 kts | 297° |
| 2026-04-23 10:56 | -35.07580 | 153.81873 | 36454 ft | 466 kts | 297° |
| 2026-04-23 10:56 | -35.05905 | 153.78483 | 36353 ft | 467 kts | 297° |
| 2026-04-23 10:56 | -35.04202 | 153.75108 | 36022 ft | 467 kts | 298° |
| 2026-04-23 10:57 | -35.02472 | 153.71755 | 35342 ft | 467 kts | 298° |
| 2026-04-23 10:57 | -35.00713 | 153.68420 | 34365 ft | 469 kts | 298° |
| 2026-04-23 10:57 | -34.98938 | 153.65139 | 33303 ft | 470 kts | 299° |
| 2026-04-23 10:57 | -34.97122 | 153.61819 | 32120 ft | 472 kts | 300° |
| 2026-04-23 10:58 | -34.95284 | 153.58486 | 31016 ft | 473 kts | 301° |
| 2026-04-23 10:58 | -34.93447 | 153.55194 | 30221 ft | 465 kts | 302° |
| 2026-04-23 10:58 | -34.91638 | 153.51995 | 29749 ft | 451 kts | 302° |
| 2026-04-23 10:58 | -34.89875 | 153.48917 | 29310 ft | 436 kts | 303° |
| 2026-04-23 10:59 | -34.88157 | 153.45943 | 28906 ft | 423 kts | 303° |
| 2026-04-23 10:59 | -34.86483 | 153.43067 | 28496 ft | 410 kts | 303° |
| 2026-04-23 10:59 | -34.84853 | 153.40278 | 28112 ft | 399 kts | 303° |
| 2026-04-23 10:59 | -34.83263 | 153.37571 | 27729 ft | 388 kts | 303° |
| 2026-04-23 11:00 | -34.81702 | 153.34922 | 27196 ft | 383 kts | 303° |
| 2026-04-23 11:00 | -34.80156 | 153.32305 | 26620 ft | 379 kts | 303° |
| 2026-04-23 11:00 | -34.78624 | 153.29719 | 26081 ft | 374 kts | 303° |
| 2026-04-23 11:00 | -34.77087 | 153.27130 | 25738 ft | 377 kts | 304° |
| 2026-04-23 11:01 | -34.75569 | 153.24582 | 25579 ft | 367 kts | 304° |
| 2026-04-23 11:01 | -34.74074 | 153.22081 | 25511 ft | 365 kts | 304° |
| 2026-04-23 11:01 | -34.72573 | 153.19576 | 25482 ft | 367 kts | 304° |
| 2026-04-23 11:01 | -34.71065 | 153.17063 | 25469 ft | 368 kts | 304° |
| 2026-04-23 11:02 | -34.69559 | 153.14558 | 25463 ft | 367 kts | 304° |
| 2026-04-23 11:02 | -34.68051 | 153.12056 | 25460 ft | 367 kts | 303° |
| 2026-04-23 11:02 | -34.66516 | 153.09542 | 25460 ft | 372 kts | 303° |
| 2026-04-23 11:02 | -34.64984 | 153.07019 | 25458 ft | 371 kts | 303° |
| 2026-04-23 11:03 | -34.63459 | 153.04499 | 25458 ft | 369 kts | 303° |
| 2026-04-23 11:03 | -34.61940 | 153.01986 | 25458 ft | 370 kts | 303° |
| 2026-04-23 11:03 | -34.60416 | 152.99465 | 25458 ft | 371 kts | 303° |
| 2026-04-23 11:03 | -34.58891 | 152.96945 | 25457 ft | 370 kts | 303° |
| 2026-04-23 11:04 | -34.57365 | 152.94425 | 25457 ft | 369 kts | 303° |
| 2026-04-23 11:04 | -34.55842 | 152.91914 | 25457 ft | 370 kts | 303° |
| 2026-04-23 11:04 | -34.54317 | 152.89401 | 25457 ft | 370 kts | 303° |
| 2026-04-23 11:04 | -34.52809 | 152.86919 | 25456 ft | 370 kts | 303° |
| 2026-04-23 11:05 | -34.51280 | 152.84405 | 25456 ft | 370 kts | 303° |
| 2026-04-23 11:05 | -34.49754 | 152.81899 | 25456 ft | 370 kts | 303° |
| 2026-04-23 11:05 | -34.48226 | 152.79391 | 25457 ft | 370 kts | 303° |
| 2026-04-23 11:05 | -34.46697 | 152.76881 | 25457 ft | 371 kts | 303° |
| 2026-04-23 11:06 | -34.43634 | 152.71865 | 25455 ft | 370 kts | 303° |
| 2026-04-23 11:06 | -34.42106 | 152.69364 | 25456 ft | 370 kts | 303° |
| 2026-04-23 11:06 | -34.40574 | 152.66859 | 25456 ft | 370 kts | 303° |
| 2026-04-23 11:07 | -34.39039 | 152.64352 | 25456 ft | 371 kts | 303° |
| 2026-04-23 11:07 | -34.37504 | 152.61843 | 25455 ft | 370 kts | 303° |
| 2026-04-23 11:07 | -34.35978 | 152.59344 | 25455 ft | 369 kts | 303° |
| 2026-04-23 11:07 | -34.34449 | 152.56850 | 25456 ft | 369 kts | 304° |
| 2026-04-23 11:08 | -34.32917 | 152.54352 | 25456 ft | 370 kts | 304° |
| 2026-04-23 11:08 | -34.31381 | 152.51852 | 25455 ft | 370 kts | 304° |
| 2026-04-23 11:08 | -34.29846 | 152.49357 | 25455 ft | 369 kts | 304° |
| 2026-04-23 11:08 | -34.28314 | 152.46869 | 25455 ft | 369 kts | 304° |
| 2026-04-23 11:09 | -34.26777 | 152.44373 | 25456 ft | 370 kts | 304° |
| 2026-04-23 11:09 | -34.25240 | 152.41878 | 25414 ft | 371 kts | 304° |
| 2026-04-23 11:09 | -34.23702 | 152.39384 | 25182 ft | 369 kts | 304° |
| 2026-04-23 11:09 | -34.22175 | 152.36906 | 24678 ft | 367 kts | 304° |
| 2026-04-23 11:10 | -34.20656 | 152.34443 | 24098 ft | 364 kts | 304° |
| 2026-04-23 11:10 | -34.19151 | 152.32003 | 23535 ft | 361 kts | 304° |
| 2026-04-23 11:10 | -34.17657 | 152.29584 | 22970 ft | 358 kts | 304° |
| 2026-04-23 11:10 | -34.16192 | 152.27215 | 22406 ft | 355 kts | 304° |
| 2026-04-23 11:11 | -34.14721 | 152.24834 | 21849 ft | 352 kts | 304° |
| 2026-04-23 11:11 | -34.13261 | 152.22477 | 21292 ft | 349 kts | 305° |
| 2026-04-23 11:11 | -34.11792 | 152.20106 | 20725 ft | 347 kts | 305° |
| 2026-04-23 11:11 | -34.10372 | 152.17815 | 20178 ft | 344 kts | 305° |
| 2026-04-23 11:12 | -34.08939 | 152.15507 | 19622 ft | 342 kts | 305° |
| 2026-04-23 11:12 | -34.07520 | 152.13222 | 19084 ft | 339 kts | 305° |
| 2026-04-23 11:12 | -34.06113 | 152.10957 | 18544 ft | 336 kts | 304° |
| 2026-04-23 11:12 | -34.05017 | 152.08508 | 17992 ft | 330 kts | 289° |
| 2026-04-23 11:13 | -34.04282 | 152.05902 | 17453 ft | 327 kts | 283° |
| 2026-04-23 11:13 | -34.03700 | 152.03266 | 16909 ft | 323 kts | 281° |
| 2026-04-23 11:13 | -34.03207 | 152.00578 | 15625 ft | 340 kts | 279° |
| 2026-04-23 11:13 | -34.02909 | 151.98674 | 14502 ft | 358 kts | 278° |
| 2026-04-23 11:14 | -34.02493 | 151.95619 | 12850 ft | 378 kts | 276° |
| 2026-04-23 11:14 | -34.02108 | 151.92429 | 11557 ft | 385 kts | 276° |
| 2026-04-23 11:14 | -34.01757 | 151.89318 | 11144 ft | 363 kts | 276° |
| 2026-04-23 11:14 | -34.01429 | 151.86381 | 10787 ft | 344 kts | 278° |
| 2026-04-23 11:15 | -34.00556 | 151.83806 | 10608 ft | 325 kts | 304° |
| 2026-04-23 11:15 | -33.99186 | 151.81743 | 10393 ft | 308 kts | 310° |
| 2026-04-23 11:15 | -33.97796 | 151.79853 | 10179 ft | 295 kts | 312° |
| 2026-04-23 11:15 | -33.96418 | 151.78031 | 9414 ft | 301 kts | 312° |
| 2026-04-23 11:16 | -33.94923 | 151.76081 | 7908 ft | 329 kts | 313° |
| 2026-04-23 11:16 | -33.93330 | 151.74017 | 6968 ft | 335 kts | 313° |
| 2026-04-23 11:16 | -33.91784 | 151.72021 | 6597 ft | 317 kts | 313° |
| 2026-04-23 11:16 | -33.90315 | 151.70126 | 6274 ft | 301 kts | 313° |
| 2026-04-23 11:17 | -33.88926 | 151.68335 | 5879 ft | 288 kts | 313° |
| 2026-04-23 11:17 | -33.87553 | 151.66565 | 4470 ft | 285 kts | 313° |
| 2026-04-23 11:17 | -33.86271 | 151.64911 | 3817 ft | 250 kts | 313° |
| 2026-04-23 11:17 | -33.85127 | 151.63440 | 3443 ft | 239 kts | 313° |
| 2026-04-23 11:18 | -33.83964 | 151.61948 | 3199 ft | 243 kts | 313° |
| 2026-04-23 11:18 | -33.82831 | 151.60499 | 3097 ft | 231 kts | 313° |
| 2026-04-23 11:18 | -33.81723 | 151.59084 | 3134 ft | 228 kts | 313° |
| 2026-04-23 11:18 | -33.80711 | 151.57793 | 3059 ft | 198 kts | 313° |
| 2026-04-23 11:19 | -33.79783 | 151.56612 | 3038 ft | 194 kts | 313° |
| 2026-04-23 11:19 | -33.78864 | 151.55427 | 3022 ft | 193 kts | 309° |
| 2026-04-23 11:19 | -33.78408 | 151.53963 | 3022 ft | 190 kts | 274° |
| 2026-04-23 11:19 | -33.78282 | 151.52384 | 3017 ft | 191 kts | 272° |
| 2026-04-23 11:20 | -33.78153 | 151.50730 | 3015 ft | 198 kts | 273° |
| 2026-04-23 11:20 | -33.77990 | 151.49086 | 3015 ft | 199 kts | 275° |
| 2026-04-23 11:20 | -33.77793 | 151.47440 | 3014 ft | 198 kts | 276° |
| 2026-04-23 11:20 | -33.77565 | 151.45805 | 3016 ft | 199 kts | 277° |
| 2026-04-23 11:21 | -33.77313 | 151.44167 | 3013 ft | 199 kts | 278° |
| 2026-04-23 11:21 | -33.77046 | 151.42539 | 3015 ft | 198 kts | 279° |
| 2026-04-23 11:21 | -33.76768 | 151.40912 | 3012 ft | 199 kts | 279° |
| 2026-04-23 11:21 | -33.76484 | 151.39283 | 3012 ft | 199 kts | 279° |
| 2026-04-23 11:22 | -33.76196 | 151.37658 | 3012 ft | 199 kts | 279° |
| 2026-04-23 11:22 | -33.75907 | 151.36033 | 3013 ft | 199 kts | 279° |
| 2026-04-23 11:22 | -33.75617 | 151.34402 | 3012 ft | 199 kts | 279° |
| 2026-04-23 11:22 | -33.75327 | 151.32775 | 3012 ft | 199 kts | 279° |
| 2026-04-23 11:23 | -33.75038 | 151.31149 | 3012 ft | 199 kts | 279° |
| 2026-04-23 11:23 | -33.74754 | 151.29542 | 3012 ft | 199 kts | 279° |
| 2026-04-23 11:23 | -33.74462 | 151.27897 | 3014 ft | 199 kts | 279° |
| 2026-04-23 11:23 | -33.74176 | 151.26293 | 3013 ft | 199 kts | 279° |
| 2026-04-23 11:24 | -33.73888 | 151.24663 | 3012 ft | 199 kts | 279° |
| 2026-04-23 11:24 | -33.73599 | 151.23035 | 3014 ft | 199 kts | 279° |
| 2026-04-23 11:24 | -33.73311 | 151.21408 | 3018 ft | 199 kts | 279° |
| 2026-04-23 11:24 | -33.73023 | 151.19782 | 3015 ft | 196 kts | 279° |
| 2026-04-23 11:25 | -33.72747 | 151.18238 | 3021 ft | 190 kts | 279° |
| 2026-04-23 11:25 | -33.72468 | 151.16681 | 3018 ft | 190 kts | 280° |
| 2026-04-23 11:25 | -33.72281 | 151.15120 | 3010 ft | 188 kts | 259° |
| 2026-04-23 11:25 | -33.72933 | 151.13871 | 3024 ft | 178 kts | 206° |
| 2026-04-23 11:26 | -33.74115 | 151.13637 | 3026 ft | 173 kts | 177° |
| 2026-04-23 11:26 | -33.75315 | 151.13672 | 3020 ft | 172 kts | 174° |
| 2026-04-23 11:26 | -33.76507 | 151.13759 | 3016 ft | 172 kts | 173° |
| 2026-04-23 11:26 | -33.77699 | 151.13880 | 3017 ft | 172 kts | 172° |
| 2026-04-23 11:27 | -33.78900 | 151.14021 | 2825 ft | 174 kts | 172° |
| 2026-04-23 11:27 | -33.80079 | 151.14171 | 2572 ft | 169 kts | 171° |
| 2026-04-23 11:27 | -33.81247 | 151.14332 | 2340 ft | 169 kts | 171° |
| 2026-04-23 11:27 | -33.82419 | 151.14510 | 2111 ft | 172 kts | 169° |
| 2026-04-23 11:28 | -33.83526 | 151.14731 | 1889 ft | 144 kts | 166° |
| 2026-04-23 11:28 | -33.84457 | 151.14955 | 1714 ft | 135 kts | 165° |
| 2026-04-23 11:28 | -33.85375 | 151.15193 | 1525 ft | 134 kts | 165° |
| 2026-04-23 11:28 | -33.86266 | 151.15429 | 1369 ft | 133 kts | 165° |
| 2026-04-23 11:29 | -33.87173 | 151.15668 | 1188 ft | 133 kts | 165° |
| 2026-04-23 11:29 | -33.88069 | 151.15902 | 1013 ft | 132 kts | 165° |
| 2026-04-23 11:29 | -33.88970 | 151.16135 | 839 ft | 133 kts | 165° |
| 2026-04-23 11:29 | -33.89868 | 151.16368 | 676 ft | 132 kts | 165° |
| 2026-04-23 11:30 | -33.90770 | 151.16601 | 501 ft | 133 kts | 165° |
| 2026-04-23 11:30 | -33.91669 | 151.16835 | 323 ft | 132 kts | 166° |
| 2026-04-23 11:30 | -33.92575 | 151.17071 | 149 ft | 133 kts | 166° |
| 2026-04-23 11:30 | -33.93465 | 151.17306 | 15 ft | 114 kts | 168° |
| 2026-04-23 11:31 | -33.93937 | 151.17421 | 18 ft | 32 kts | 167° |
| 2026-04-23 11:31 | -33.94143 | 151.17473 | 24 ft | 29 kts | 167° |
| 2026-04-23 11:31 | -33.94402 | 151.17544 | 26 ft | 47 kts | 166° |
| 2026-04-23 11:31 | -33.94688 | 151.17627 | 24 ft | 38 kts | 168° |
| 2026-04-23 11:32 | -33.94927 | 151.17654 | 22 ft | 32 kts | 180° |
| 2026-04-23 11:32 | -33.95094 | 151.17625 | 20 ft | 7 kts | 188° |
| 2026-04-23 11:32 | -33.95100 | 151.17623 | 21 ft | 0 kts | 188° |
| 2026-04-23 11:33 | -33.95130 | 151.17616 | 20 ft | 8 kts | 198° |
| 2026-04-23 11:33 | -33.95158 | 151.17573 | 19 ft | 6 kts | 259° |
| 2026-04-23 11:33 | -33.95158 | 151.17572 | 19 ft | 0 kts | 262° |
| 2026-04-23 11:34 | -33.95157 | 151.17557 | 19 ft | 7 kts | 279° |
| 2026-04-23 11:34 | -33.95071 | 151.17508 | 20 ft | 20 kts | 349° |
| 2026-04-23 11:35 | -33.94916 | 151.17470 | 20 ft | 26 kts | 348° |
| 2026-04-23 11:35 | -33.94729 | 151.17421 | 26 ft | 28 kts | 348° |
| 2026-04-23 11:35 | -33.94539 | 151.17371 | 26 ft | 28 kts | 348° |
| 2026-04-23 11:35 | -33.94346 | 151.17321 | 26 ft | 29 kts | 347° |
| 2026-04-23 11:36 | -33.94148 | 151.17269 | 24 ft | 28 kts | 346° |
| 2026-04-23 11:36 | -33.94023 | 151.17234 | 21 ft | 17 kts | 348° |
| 2026-04-23 11:36 | -33.93987 | 151.17152 | 19 ft | 17 kts | 269° |
| 2026-04-23 11:36 | -33.93891 | 151.17081 | 21 ft | 17 kts | 347° |
| 2026-04-23 11:37 | -33.93795 | 151.17056 | 23 ft | 12 kts | 345° |
| 2026-04-23 11:37 | -33.93783 | 151.17000 | 21 ft | 7 kts | 253° |
| 2026-04-23 11:37 | -33.93798 | 151.16945 | 24 ft | 7 kts | 253° |
| 2026-04-23 11:37 | -33.93800 | 151.16934 | 22 ft | 0 kts | 253° |